createdAt,value
2018-12-17T00:00:54.197Z,11.93
2018-12-17T00:03:29.111Z,11.90
2018-12-17T00:06:04.868Z,13.23
2018-12-17T00:08:38.769Z,14.27
2018-12-17T00:11:12.686Z,13.03
2018-12-17T00:13:48.529Z,12.37
2018-12-17T00:16:24.052Z,13.23
2018-12-17T00:18:58.631Z,11.87
2018-12-17T00:21:33.206Z,14.47
2018-12-17T00:24:09.300Z,14.20
2018-12-17T00:26:43.600Z,13.73
2018-12-17T00:29:17.947Z,15.17
2018-12-17T00:31:51.572Z,14.07
2018-12-17T00:34:27.764Z,15.13
2018-12-17T00:37:01.828Z,14.90
2018-12-17T00:39:38.176Z,13.43
2018-12-17T00:42:12.476Z,11.37
2018-12-17T00:44:47.608Z,13.20
2018-12-17T00:47:22.452Z,13.07
2018-12-17T00:49:56.688Z,15.10
2018-12-17T00:52:30.931Z,14.00
2018-12-17T00:55:05.208Z,14.07
2018-12-17T00:57:39.379Z,14.07
2018-12-17T01:00:12.767Z,13.40
2018-12-17T01:02:47.204Z,12.17
2018-12-17T01:05:21.014Z,11.70
2018-12-17T01:07:55.001Z,12.17
2018-12-17T01:10:28.813Z,13.63
2018-12-17T01:13:04.765Z,11.53
2018-12-17T01:15:39.301Z,13.67
2018-12-17T01:18:13.549Z,13.83
2018-12-17T01:20:47.645Z,14.97
2018-12-17T01:23:21.429Z,12.73
2018-12-17T01:25:54.956Z,11.30
2018-12-17T01:28:28.041Z,11.80
2018-12-17T01:31:03.629Z,12.13
2018-12-17T01:33:39.270Z,12.30
2018-12-17T01:36:14.028Z,11.63
2018-12-17T01:38:48.111Z,13.63
2018-12-17T01:41:23.910Z,14.37
2018-12-17T01:43:58.654Z,12.80
2018-12-17T01:46:32.115Z,12.60
2018-12-17T01:49:04.408Z,14.23
2018-12-17T01:51:38.729Z,13.70
2018-12-17T01:54:13.074Z,17.40
2018-12-17T01:56:47.828Z,14.00
2018-12-17T01:59:22.475Z,13.50
2018-12-17T02:01:57.302Z,11.97
2018-12-17T02:04:31.473Z,11.87
2018-12-17T02:07:05.080Z,12.17
2018-12-17T02:09:37.605Z,12.60
2018-12-17T02:12:11.312Z,11.33
2018-12-17T02:14:44.780Z,10.63
2018-12-17T02:17:24.387Z,12.40
2018-12-17T02:19:58.556Z,11.03
2018-12-17T02:22:32.164Z,11.97
2018-12-17T02:25:06.249Z,14.03
2018-12-17T02:27:40.095Z,13.80
2018-12-17T02:30:13.175Z,10.50
2018-12-17T02:32:48.163Z,11.23
2018-12-17T02:35:24.934Z,10.70
2018-12-17T02:37:58.587Z,11.93
2018-12-17T02:40:32.061Z,9.93
2018-12-17T02:43:05.835Z,13.00
2018-12-17T02:45:40.127Z,10.87
2018-12-17T02:48:14.957Z,12.30
2018-12-17T02:50:49.108Z,11.63
2018-12-17T02:53:22.820Z,12.93
2018-12-17T02:55:56.401Z,12.27
2018-12-17T02:58:31.284Z,11.50
2018-12-17T03:01:06.250Z,14.23
2018-12-17T03:03:41.643Z,12.57
2018-12-17T03:06:15.561Z,11.80
2018-12-17T03:08:50.493Z,13.30
2018-12-17T03:11:23.887Z,13.73
2018-12-17T03:13:58.121Z,12.70
2018-12-17T03:16:32.699Z,13.27
2018-12-17T03:19:06.735Z,14.10
2018-12-17T03:21:40.854Z,13.93
2018-12-17T03:24:15.891Z,10.97
2018-12-17T03:26:49.959Z,11.37
2018-12-17T03:29:25.568Z,10.50
2018-12-17T03:31:59.949Z,13.13
2018-12-17T03:34:32.971Z,11.63
2018-12-17T03:37:07.173Z,14.90
2018-12-17T03:39:41.955Z,13.53
2018-12-17T03:42:14.821Z,12.50
2018-12-17T03:44:49.494Z,17.90
2018-12-17T03:47:23.901Z,18.30
2018-12-17T03:49:58.451Z,15.57
2018-12-17T03:52:31.907Z,12.33
2018-12-17T03:55:05.024Z,13.43
2018-12-17T03:57:40.076Z,17.12
2018-12-17T04:00:14.175Z,16.12
2018-12-17T04:02:48.930Z,14.77
2018-12-17T04:05:23.550Z,14.77
2018-12-17T04:07:57.350Z,16.60
2018-12-17T04:10:32.750Z,30.87
2018-12-17T04:13:06.869Z,18.03
2018-12-17T04:15:42.392Z,19.60
2018-12-17T04:18:16.791Z,27.43
2018-12-17T04:20:50.574Z,29.93
2018-12-17T04:23:26.149Z,26.33
2018-12-17T04:26:01.565Z,30.97
2018-12-17T04:28:36.193Z,34.53
2018-12-17T04:31:11.387Z,28.47
2018-12-17T04:33:45.953Z,37.00
2018-12-17T04:36:19.921Z,37.33
2018-12-17T04:38:55.448Z,54.83
2018-12-17T04:41:30.483Z,37.87
2018-12-17T04:44:05.970Z,28.10
2018-12-17T04:46:39.644Z,42.40
2018-12-17T04:49:14.006Z,40.37
2018-12-17T04:51:48.832Z,41.20
2018-12-17T04:54:22.303Z,29.07
2018-12-17T04:56:57.563Z,18.47
2018-12-17T04:59:32.804Z,20.67
2018-12-17T05:02:07.222Z,20.20
2018-12-17T05:04:41.958Z,21.33
2018-12-17T05:07:16.040Z,18.20
2018-12-17T05:09:50.413Z,31.53
2018-12-17T05:12:24.931Z,30.93
2018-12-17T05:14:58.618Z,20.90
2018-12-17T05:17:32.050Z,16.77
2018-12-17T05:20:06.224Z,15.37
2018-12-17T05:22:40.184Z,14.50
2018-12-17T05:25:13.522Z,13.53
2018-12-17T05:27:49.050Z,12.83
2018-12-17T05:30:23.294Z,15.40
2018-12-17T05:32:57.611Z,14.70
2018-12-17T05:35:33.236Z,21.83
2018-12-17T05:38:08.663Z,16.07
2018-12-17T05:40:43.441Z,15.20
2018-12-17T05:43:15.532Z,19.37
2018-12-17T05:45:47.717Z,20.90
2018-12-17T05:48:19.917Z,20.27
2018-12-17T05:50:53.023Z,19.57
2018-12-17T05:53:25.775Z,16.00
2018-12-17T05:55:57.789Z,15.93
2018-12-17T05:58:29.803Z,15.13
2018-12-17T06:01:01.875Z,14.73
2018-12-17T06:03:34.240Z,13.63
2018-12-17T06:06:06.336Z,14.27
2018-12-17T06:08:38.408Z,15.37
2018-12-17T06:11:10.934Z,14.53
2018-12-17T06:13:42.879Z,20.00
2018-12-17T06:16:15.235Z,64.00
2018-12-17T06:18:47.317Z,77.60
2018-12-17T06:21:20.592Z,83.47
2018-12-17T06:23:52.573Z,45.50
2018-12-17T06:26:24.569Z,26.67
2018-12-17T06:28:57.073Z,30.93
2018-12-17T06:31:28.980Z,23.67
2018-12-17T06:34:02.249Z,47.00
2018-12-17T06:36:35.344Z,40.90
2018-12-17T06:39:09.632Z,29.77
2018-12-17T06:41:41.976Z,27.23
2018-12-17T06:44:15.170Z,20.13
2018-12-17T06:46:47.249Z,20.27
2018-12-17T06:49:19.351Z,15.17
2018-12-17T06:51:52.127Z,15.57
2018-12-17T06:54:24.452Z,16.00
2018-12-17T06:56:56.617Z,16.70
2018-12-17T06:59:28.708Z,13.33
2018-12-17T07:02:01.431Z,15.87
2018-12-17T07:04:33.385Z,13.70
2018-12-17T07:07:05.418Z,14.60
2018-12-17T07:09:38.358Z,13.93
2018-12-17T07:12:10.611Z,14.50
2018-12-17T07:14:43.388Z,11.07
2018-12-17T07:17:15.289Z,13.13
2018-12-17T07:19:47.494Z,11.90
2018-12-17T07:22:19.620Z,12.80
2018-12-17T07:24:51.593Z,13.60
2018-12-17T07:27:23.726Z,13.57
2018-12-17T07:29:55.538Z,12.37
2018-12-17T07:32:27.348Z,14.70
2018-12-17T07:34:59.713Z,16.10
2018-12-17T07:37:31.959Z,17.60
2018-12-17T07:40:04.226Z,17.90
2018-12-17T07:42:36.564Z,15.20
2018-12-17T07:45:09.279Z,13.27
2018-12-17T07:47:41.284Z,15.53
2018-12-17T07:50:13.619Z,15.40
2018-12-17T07:52:45.582Z,13.13
2018-12-17T07:55:17.810Z,12.50
2018-12-17T07:57:49.654Z,16.77
2018-12-17T08:00:21.789Z,12.63
2018-12-17T08:02:53.742Z,16.20
2018-12-17T08:05:25.838Z,19.00
2018-12-17T08:07:57.791Z,20.63
2018-12-17T08:10:29.836Z,15.90
2018-12-17T08:13:02.742Z,18.07
2018-12-17T08:15:35.069Z,15.33
2018-12-17T08:18:26.564Z,15.27
2018-12-17T08:20:58.750Z,18.20
2018-12-17T08:23:32.110Z,40.73
2018-12-17T08:26:04.158Z,33.83
2018-12-17T08:28:36.081Z,21.13
2018-12-17T08:31:08.574Z,14.33
2018-12-17T08:33:40.952Z,14.67
2018-12-17T08:36:13.129Z,14.93
2018-12-17T08:38:45.529Z,11.93
2018-12-17T08:41:18.370Z,14.90
2018-12-17T08:43:50.479Z,13.40
2018-12-17T08:46:23.064Z,11.97
2018-12-17T08:48:55.584Z,11.67
2018-12-17T08:51:28.051Z,12.70
2018-12-17T08:54:00.911Z,14.47
2018-12-17T08:56:33.306Z,21.93
2018-12-17T08:59:05.365Z,20.27
2018-12-17T09:01:37.649Z,20.97
2018-12-17T09:04:09.939Z,51.33
2018-12-17T09:06:41.834Z,22.47
2018-12-17T09:09:13.744Z,25.80
2018-12-17T09:11:46.710Z,31.57
2018-12-17T09:14:19.624Z,16.63
2018-12-17T09:16:51.977Z,15.40
2018-12-17T09:19:24.086Z,11.57
2018-12-17T09:21:55.979Z,14.47
2018-12-17T09:24:28.041Z,13.10
2018-12-17T09:27:00.850Z,11.83
2018-12-17T09:29:32.745Z,11.40
2018-12-17T09:32:05.250Z,13.13
2018-12-17T09:34:37.875Z,14.53
2018-12-17T09:37:10.097Z,12.10
2018-12-17T09:39:45.346Z,14.13
2018-12-17T09:42:18.028Z,14.37
2018-12-17T09:44:51.458Z,19.40
2018-12-17T09:47:23.833Z,17.30
2018-12-17T09:49:55.849Z,20.50
2018-12-17T09:52:28.443Z,18.00
2018-12-17T09:55:00.898Z,19.70
2018-12-17T09:57:33.255Z,57.93
2018-12-17T10:00:06.331Z,49.77
2018-12-17T10:02:38.542Z,21.23
2018-12-17T10:05:10.673Z,19.80
2018-12-17T10:07:43.873Z,18.37
2018-12-17T10:10:15.897Z,18.47
2018-12-17T10:12:48.514Z,17.77
2018-12-17T10:15:20.621Z,17.40
2018-12-17T10:17:52.855Z,18.50
2018-12-17T10:20:24.953Z,14.70
2018-12-17T10:22:57.255Z,21.33
2018-12-17T10:25:29.572Z,20.33
2018-12-17T10:28:03.004Z,16.30
2018-12-17T10:30:35.343Z,16.20
2018-12-17T10:33:07.484Z,15.60
2018-12-17T10:35:39.642Z,15.93
2018-12-17T10:38:11.757Z,26.47
2018-12-17T10:40:44.031Z,31.63
2018-12-17T10:43:16.213Z,31.37
2018-12-17T10:45:48.562Z,31.30
2018-12-17T10:48:20.407Z,32.57
2018-12-17T10:50:52.345Z,20.10
2018-12-17T10:53:24.669Z,18.57
2018-12-17T10:55:56.934Z,18.00
2018-12-17T10:58:29.753Z,18.87
2018-12-17T11:01:06.714Z,19.90
2018-12-17T11:03:46.637Z,18.80
2018-12-17T11:06:22.473Z,20.17
2018-12-17T11:08:54.368Z,20.97
2018-12-17T11:11:26.587Z,19.57
2018-12-17T11:13:58.482Z,17.73
2018-12-17T11:16:30.536Z,21.83
2018-12-17T11:19:02.362Z,25.37
2018-12-17T11:21:34.716Z,24.23
2018-12-17T11:24:07.131Z,16.63
2018-12-17T11:26:39.310Z,20.87
2018-12-17T11:29:11.454Z,68.07
2018-12-17T11:31:43.585Z,41.23
2018-12-17T11:34:15.879Z,36.73
2018-12-17T11:36:48.692Z,48.70
2018-12-17T11:39:20.961Z,36.30
2018-12-17T11:41:52.981Z,21.30
2018-12-17T11:44:24.966Z,25.73
2018-12-17T11:46:56.896Z,26.53
2018-12-17T11:49:28.972Z,25.33
2018-12-17T11:52:01.372Z,24.03
2018-12-17T11:54:33.234Z,24.27
2018-12-17T11:57:55.701Z,24.43
2018-12-17T12:00:28.573Z,16.10
2018-12-17T12:03:01.214Z,15.90
2018-12-17T12:05:33.711Z,25.40
2018-12-17T12:08:06.324Z,25.10
2018-12-17T12:10:38.439Z,25.87
2018-12-17T12:13:10.613Z,18.00
2018-12-17T12:15:42.501Z,18.37
2018-12-17T12:18:15.125Z,17.37
2018-12-17T12:20:48.512Z,20.43
2018-12-17T12:23:20.430Z,16.77
2018-12-17T12:25:52.689Z,16.63
2018-12-17T12:28:24.494Z,18.27
2018-12-17T12:31:00.464Z,21.30
2018-12-17T12:33:31.625Z,16.30
2018-12-17T12:36:04.670Z,18.33
2018-12-17T12:38:37.058Z,20.27
2018-12-17T12:41:09.389Z,19.03
2018-12-17T12:43:42.321Z,19.47
2018-12-17T12:46:14.362Z,18.33
2018-12-17T12:48:46.676Z,19.40
2018-12-17T12:51:19.236Z,18.23
2018-12-17T12:53:51.721Z,17.53
2018-12-17T12:56:25.254Z,19.13
2018-12-17T12:58:57.688Z,21.40
2018-12-17T13:01:29.845Z,27.70
2018-12-17T13:04:02.368Z,29.70
2018-12-17T13:06:34.735Z,33.17
2018-12-17T13:09:08.721Z,32.10
2018-12-17T13:11:41.048Z,26.67
2018-12-17T13:14:13.192Z,32.90
2018-12-17T13:16:45.827Z,32.50
2018-12-17T13:19:18.603Z,25.43
2018-12-17T13:21:51.504Z,23.17
2018-12-17T13:24:23.727Z,23.63
2018-12-17T13:26:55.826Z,24.50
2018-12-17T13:29:28.422Z,25.33
2018-12-17T13:32:01.123Z,20.80
2018-12-17T13:34:33.777Z,23.50
2018-12-17T13:37:05.983Z,21.87
2018-12-17T13:39:38.858Z,22.30
2018-12-17T13:42:11.252Z,23.13
2018-12-17T13:44:43.449Z,23.43
2018-12-17T13:47:15.912Z,21.83
2018-12-17T13:49:48.034Z,18.30
2018-12-17T13:52:25.203Z,19.13
2018-12-17T13:54:57.539Z,15.80
2018-12-17T13:57:30.079Z,17.60
2018-12-17T14:00:01.995Z,15.07
2018-12-17T14:02:35.010Z,17.13
2018-12-17T14:05:07.858Z,14.27
2018-12-17T14:07:39.798Z,19.10
2018-12-17T14:10:18.140Z,14.50
2018-12-17T14:12:50.153Z,24.53
2018-12-17T14:15:25.513Z,23.27
2018-12-17T14:17:57.501Z,19.63
2018-12-17T14:20:34.929Z,19.80
2018-12-17T14:23:07.941Z,18.47
2018-12-17T14:25:40.316Z,19.27
2018-12-17T14:28:12.875Z,19.30
2018-12-17T14:30:45.696Z,17.90
2018-12-17T14:33:18.219Z,17.93
2018-12-17T14:35:55.171Z,20.20
2018-12-17T14:38:27.631Z,18.53
2018-12-17T14:40:59.918Z,17.70
2018-12-17T14:43:32.104Z,19.23
2018-12-17T14:46:04.741Z,18.90
2018-12-17T14:48:37.075Z,17.30
2018-12-17T14:51:09.701Z,15.20
2018-12-17T14:53:41.979Z,19.30
2018-12-17T14:56:14.596Z,15.80
2018-12-17T14:58:47.760Z,15.00
2018-12-17T15:01:20.439Z,11.30
2018-12-17T15:03:52.982Z,13.20
2018-12-17T15:06:25.348Z,17.00
2018-12-17T15:09:04.008Z,14.40
2018-12-17T15:11:36.971Z,16.50
2018-12-17T15:14:09.129Z,24.27
2018-12-17T15:16:41.688Z,36.13
2018-12-17T15:19:14.618Z,27.02
2018-12-17T15:21:47.154Z,22.67
2018-12-17T15:24:20.700Z,24.85
2018-12-17T15:26:53.609Z,23.77
2018-12-17T15:29:26.055Z,23.90
2018-12-17T15:31:58.584Z,23.77
2018-12-17T15:34:30.967Z,19.93
2018-12-17T15:37:03.147Z,19.97
2018-12-17T15:39:35.490Z,16.93
2018-12-17T15:42:08.774Z,18.30
2018-12-17T15:44:41.169Z,19.73
2018-12-17T15:47:13.415Z,20.20
2018-12-17T15:49:45.498Z,20.03
2018-12-17T15:52:18.901Z,21.63
2018-12-17T15:54:51.346Z,25.13
2018-12-17T15:57:23.842Z,24.57
2018-12-17T15:59:56.306Z,29.00
2018-12-17T16:02:29.413Z,23.97
2018-12-17T16:05:01.466Z,25.00
2018-12-17T16:07:33.534Z,22.60
2018-12-17T16:10:06.842Z,21.03
2018-12-17T16:12:39.176Z,23.93
2018-12-17T16:15:11.776Z,21.53
2018-12-17T16:17:44.123Z,18.03
2018-12-17T16:20:16.219Z,22.20
2018-12-17T16:22:49.845Z,22.23
2018-12-17T16:25:22.243Z,18.00
2018-12-17T16:27:55.039Z,25.00
2018-12-17T16:30:27.646Z,28.80
2018-12-17T16:33:00.159Z,35.00
2018-12-17T16:35:32.503Z,38.73
2018-12-17T16:38:05.167Z,26.93
2018-12-17T16:40:38.745Z,29.17
2018-12-17T16:43:12.019Z,24.47
2018-12-17T16:45:44.926Z,24.20
2018-12-17T16:48:17.846Z,29.10
2018-12-17T16:50:50.317Z,24.83
2018-12-17T16:53:22.585Z,32.20
2018-12-17T16:55:55.251Z,23.47
2018-12-17T16:58:27.969Z,19.50
2018-12-17T17:01:00.375Z,27.07
2018-12-17T17:03:33.938Z,24.90
2018-12-17T17:06:06.180Z,30.77
2018-12-17T17:08:39.042Z,29.57
2018-12-17T17:11:11.640Z,28.87
2018-12-17T17:13:44.234Z,24.37
2018-12-17T17:16:16.723Z,24.83
2018-12-17T17:18:49.318Z,22.50
2018-12-17T17:21:21.739Z,21.20
2018-12-17T17:23:54.070Z,23.37
2018-12-17T17:26:26.764Z,18.00
2018-12-17T17:28:59.621Z,23.60
2018-12-17T17:31:31.674Z,18.90
2018-12-17T17:34:04.096Z,17.90
2018-12-17T17:36:36.642Z,19.43
2018-12-17T17:39:10.164Z,17.37
2018-12-17T17:41:42.486Z,14.17
2018-12-17T17:44:14.736Z,16.70
2018-12-17T17:46:47.369Z,15.83
2018-12-17T17:49:19.836Z,16.83
2018-12-17T17:51:51.783Z,18.00
2018-12-17T17:54:23.813Z,17.80
2018-12-17T17:56:57.307Z,18.83
2018-12-17T17:59:29.386Z,12.57
2018-12-17T18:02:01.881Z,16.17
2018-12-17T18:04:34.038Z,15.80
2018-12-17T18:07:07.477Z,17.27
2018-12-17T18:09:40.189Z,15.27
2018-12-17T18:12:13.977Z,15.63
2018-12-17T18:14:46.499Z,16.00
2018-12-17T18:17:20.624Z,15.50
2018-12-17T18:19:52.822Z,13.93
2018-12-17T18:22:25.654Z,18.67
2018-12-17T18:24:57.779Z,15.83
2018-12-17T18:27:30.200Z,17.67
2018-12-17T18:30:02.295Z,19.07
2018-12-17T18:32:36.595Z,14.87
2018-12-17T18:35:09.034Z,17.43
2018-12-17T18:37:41.347Z,14.97
2018-12-17T18:40:13.812Z,14.87
2018-12-17T18:42:46.227Z,14.63
2018-12-17T18:45:19.624Z,19.07
2018-12-17T18:47:51.738Z,14.50
2018-12-17T18:50:23.874Z,13.47
2018-12-17T18:52:55.879Z,15.03
2018-12-17T18:55:28.315Z,14.47
2018-12-17T18:58:00.522Z,16.20
2018-12-17T19:00:33.153Z,15.20
2018-12-17T19:03:05.773Z,16.00
2018-12-17T19:05:38.058Z,15.10
2018-12-17T19:08:10.222Z,14.87
2018-12-17T19:10:48.188Z,16.50
2018-12-17T19:13:20.440Z,13.73
2018-12-17T19:15:52.761Z,16.40
2018-12-17T19:18:24.780Z,15.77
2018-12-17T19:20:57.204Z,15.23
2018-12-17T19:23:29.833Z,15.87
2018-12-17T19:26:02.080Z,17.80
2018-12-17T19:28:34.159Z,14.67
2018-12-17T19:31:06.242Z,18.47
2018-12-17T19:33:39.892Z,15.97
2018-12-17T19:36:12.416Z,20.40
2018-12-17T19:38:46.643Z,16.73
2018-12-17T19:41:18.955Z,21.30
2018-12-17T19:43:51.760Z,14.90
2018-12-17T19:46:23.903Z,16.67
2018-12-17T19:48:56.642Z,18.73
2018-12-17T19:51:30.250Z,18.33
2018-12-17T19:54:04.719Z,20.50
2018-12-17T19:56:37.076Z,19.03
2018-12-17T19:59:09.725Z,18.03
2018-12-17T20:01:42.473Z,19.10
2018-12-17T20:04:15.017Z,18.70
2018-12-17T20:06:48.646Z,18.57
2018-12-17T20:09:21.713Z,17.97
2018-12-17T20:11:56.250Z,17.73
2018-12-17T20:14:29.467Z,20.13
2018-12-17T20:17:01.685Z,19.30
2018-12-17T20:19:33.939Z,22.33
2018-12-17T20:22:06.394Z,21.63
2018-12-17T20:24:40.056Z,18.97
2018-12-17T20:27:12.675Z,26.37
2018-12-17T20:29:50.453Z,23.00
2018-12-17T20:32:20.866Z,18.90
2018-12-17T20:34:53.346Z,22.70
2018-12-17T20:37:26.383Z,19.97
2018-12-17T20:39:59.072Z,21.27
2018-12-17T20:42:31.757Z,25.57
2018-12-17T20:45:05.229Z,26.73
2018-12-17T20:47:37.257Z,24.33
2018-12-17T20:50:09.982Z,29.53
2018-12-17T20:52:41.875Z,27.93
2018-12-17T20:55:14.748Z,24.93
2018-12-17T20:57:46.966Z,24.73
2018-12-17T21:00:18.904Z,27.07
2018-12-17T21:02:51.417Z,31.73
2018-12-17T21:05:24.003Z,25.60
2018-12-17T21:07:56.072Z,22.60
2018-12-17T21:10:28.644Z,23.33
2018-12-17T21:13:00.992Z,24.27
2018-12-17T21:15:33.105Z,23.87
2018-12-17T21:18:05.518Z,23.20
2018-12-17T21:20:37.819Z,25.83
2018-12-17T21:23:10.080Z,27.40
2018-12-17T21:25:42.506Z,25.37
2018-12-17T21:28:15.326Z,23.53
2018-12-17T21:30:47.444Z,27.77
2018-12-17T21:33:19.832Z,22.37
2018-12-17T21:35:53.152Z,22.43
2018-12-17T21:38:25.267Z,25.37
2018-12-17T21:40:57.405Z,29.07
2018-12-17T21:43:35.905Z,22.33
2018-12-17T21:46:06.001Z,26.23
2018-12-17T21:48:38.645Z,33.23
2018-12-17T21:51:10.630Z,25.43
2018-12-17T21:53:43.237Z,27.07
2018-12-17T21:56:15.215Z,28.17
2018-12-17T21:58:47.556Z,28.67
2018-12-17T22:01:19.779Z,27.20
2018-12-17T22:03:52.016Z,27.97
2018-12-17T22:06:24.295Z,26.33
2018-12-17T22:08:56.670Z,27.80
2018-12-17T22:11:28.471Z,29.50
2018-12-17T22:14:00.873Z,28.83
2018-12-17T22:16:32.959Z,25.37
2018-12-17T22:19:04.985Z,26.50
2018-12-17T22:21:37.413Z,26.07
2018-12-17T22:24:09.465Z,29.47
2018-12-17T22:26:41.595Z,28.23
2018-12-17T22:29:14.351Z,33.43
2018-12-17T22:31:46.459Z,27.30
2018-12-17T22:34:19.444Z,25.17
2018-12-17T22:36:51.935Z,28.47
2018-12-17T22:39:24.090Z,28.47
2018-12-17T22:41:56.177Z,28.33
2018-12-17T22:44:29.179Z,29.37
2018-12-17T22:47:01.385Z,29.87
2018-12-17T22:49:33.685Z,30.50
2018-12-17T22:52:05.785Z,27.30
2018-12-17T22:54:37.882Z,30.10
2018-12-17T22:57:11.019Z,37.03
2018-12-17T22:59:43.028Z,28.67
2018-12-17T23:02:15.198Z,28.23
2018-12-17T23:04:47.360Z,29.33
2018-12-17T23:07:19.685Z,29.10
2018-12-17T23:10:07.907Z,29.13
2018-12-17T23:12:55.742Z,31.00
2018-12-17T23:15:43.998Z,30.53
2018-12-17T23:18:14.380Z,32.70
2018-12-17T23:20:47.107Z,29.87
2018-12-17T23:23:20.138Z,27.60
2018-12-17T23:25:53.166Z,30.93
2018-12-17T23:28:26.094Z,32.17
2018-12-17T23:30:58.799Z,29.70
2018-12-17T23:33:33.068Z,27.00
2018-12-17T23:36:06.159Z,31.43
2018-12-17T23:38:38.526Z,29.03
2018-12-17T23:41:10.813Z,28.47
2018-12-17T23:43:42.594Z,29.90
2018-12-17T23:46:15.063Z,33.40
2018-12-17T23:48:47.194Z,29.73
2018-12-17T23:51:19.598Z,30.77
2018-12-17T23:53:52.006Z,28.50
2018-12-17T23:56:24.035Z,38.40
2018-12-17T23:58:56.241Z,36.37
